Time;durP1;ratioP1;P1;durP2;ratioP2;P2;SDS_P1;SDS_P2;PMS_P1;PMS_P2;Temp;Humidity;BMP_temperature;BMP_pressure;BME280_temperature;BME280_humidity;BME280_pressure;Samples;Min_cycle;Max_cycle;Signal;HPM_P1;HPM_P2
2021/08/29 00:01:09;;;;;;;;;8.33;7.33;;;;;;;;5075035;28;50916;-49
2021/08/29 00:03:34;;;;;;;;;9.33;8.67;;;;;;;;5064082;28;51622;-49
2021/08/29 00:06:00;;;;;;;;;8.67;8.00;;;;;;;;5047659;28;51027;-49
2021/08/29 00:08:25;;;;;;;;;9.00;7.00;;;;;;;;5063708;28;51238;-51
2021/08/29 00:10:50;;;;;;;;;5.67;5.67;;;;;;;;5066368;28;51238;-48
2021/08/29 00:13:15;;;;;;;;;9.67;9.67;;;;;;;;5073665;28;51202;-51
2021/08/29 00:15:41;;;;;;;;;9.00;8.67;;;;;;;;5072739;28;51274;-50
2021/08/29 00:18:06;;;;;;;;;10.00;9.67;;;;;;;;5073376;28;51156;-47
2021/08/29 00:20:31;;;;;;;;;9.00;8.00;;;;;;;;5072305;28;51548;-54
2021/08/29 00:22:56;;;;;;;;;10.00;10.00;;;;;;;;5070470;28;52051;-52
2021/08/29 00:25:21;;;;;;;;;11.00;10.00;;;;;;;;5065179;28;51359;-49
2021/08/29 00:27:47;;;;;;;;;10.33;10.33;;;;;;;;5069524;28;51360;-50
2021/08/29 00:30:12;;;;;;;;;10.00;9.67;;;;;;;;5070484;28;51261;-51
2021/08/29 00:32:37;;;;;;;;;9.67;9.33;;;;;;;;5071369;28;51464;-50
2021/08/29 00:35:03;;;;;;;;;9.67;9.00;;;;;;;;5073021;28;51107;-49
2021/08/29 00:37:28;;;;;;;;;8.00;5.00;;;;;;;;5071210;28;51110;-49
2021/08/29 00:39:53;;;;;;;;;9.00;8.33;;;;;;;;5054779;28;51005;-49
2021/08/29 00:42:18;;;;;;;;;10.33;9.67;;;;;;;;5054913;28;54185;-49
2021/08/29 00:44:43;;;;;;;;;8.00;8.00;;;;;;;;5055079;28;51014;-49
2021/08/29 00:47:09;;;;;;;;;10.67;9.33;;;;;;;;5072168;28;51184;-49
2021/08/29 00:49:36;;;;;;;;;9.33;9.00;;;;;;;;5059045;28;51093;-49
2021/08/29 00:52:02;;;;;;;;;12.00;12.00;;;;;;;;5073124;28;52184;-51
2021/08/29 00:54:31;;;;;;;;;10.00;10.00;;;;;;;;5072884;28;50962;-50
2021/08/29 00:56:56;;;;;;;;;10.33;10.33;;;;;;;;5054338;28;50900;-49
2021/08/29 00:59:22;;;;;;;;;15.75;14.00;;;;;;;;5073104;28;51418;-49
2021/08/29 01:01:55;;;;;;;;;12.50;12.00;;;;;;;;5073303;28;51018;-49
2021/08/29 01:04:23;;;;;;;;;13.00;12.25;;;;;;;;5060495;28;52737;-51
2021/08/29 01:06:55;;;;;;;;;14.50;14.00;;;;;;;;5067754;28;51040;-48
2021/08/29 01:09:20;;;;;;;;;14.25;13.00;;;;;;;;5068384;28;51298;-49
2021/08/29 01:11:49;;;;;;;;;17.00;14.75;;;;;;;;5072684;27;53177;-52
2021/08/29 01:14:19;;;;;;;;;15.00;15.00;;;;;;;;5070161;28;50988;-50
2021/08/29 01:16:47;;;;;;;;;15.25;13.75;;;;;;;;5045424;28;50901;-48
2021/08/29 01:19:14;;;;;;;;;13.75;12.50;;;;;;;;5073083;28;51105;-51
2021/08/29 01:21:40;;;;;;;;;13.50;13.25;;;;;;;;5073119;28;51951;-51
2021/08/29 01:24:07;;;;;;;;;12.00;12.00;;;;;;;;5060286;28;51217;-51
2021/08/29 01:26:48;;;;;;;;;16.00;15.00;;;;;;;;5067445;28;50902;-52
2021/08/29 01:29:15;;;;;;;;;15.50;13.00;;;;;;;;5065298;28;50997;-53
2021/08/29 01:31:41;;;;;;;;;11.50;10.75;;;;;;;;5072829;28;52028;-52
2021/08/29 01:34:08;;;;;;;;;11.67;11.67;;;;;;;;5070375;28;50886;-48
2021/08/29 01:36:34;;;;;;;;;13.75;12.00;;;;;;;;5065809;28;51079;-50
2021/08/29 01:39:01;;;;;;;;;12.75;11.50;;;;;;;;5072589;28;51195;-51
2021/08/29 01:41:26;;;;;;;;;11.00;11.00;;;;;;;;5072506;28;53099;-49
2021/08/29 01:43:52;;;;;;;;;10.00;9.00;;;;;;;;5071711;28;51179;-54
2021/08/29 01:46:18;;;;;;;;;9.33;8.67;;;;;;;;5072931;28;51001;-52
2021/08/29 01:48:44;;;;;;;;;10.50;8.75;;;;;;;;5073255;28;51208;-50
2021/08/29 01:51:10;;;;;;;;;9.33;8.00;;;;;;;;5062328;28;51914;-51
2021/08/29 01:53:35;;;;;;;;;7.67;7.00;;;;;;;;5071762;28;50998;-50
2021/08/29 01:56:01;;;;;;;;;9.00;7.67;;;;;;;;5072223;28;52254;-49
2021/08/29 01:58:26;;;;;;;;;11.00;10.33;;;;;;;;5054860;28;51303;-50
2021/08/29 02:00:52;;;;;;;;;10.67;9.67;;;;;;;;5046792;28;53584;-52
2021/08/29 02:03:18;;;;;;;;;8.00;7.00;;;;;;;;5059481;28;50892;-52
2021/08/29 02:05:45;;;;;;;;;10.33;9.33;;;;;;;;5066493;28;50993;-50
2021/08/29 02:08:12;;;;;;;;;12.00;10.67;;;;;;;;5072732;28;50919;-53
2021/08/29 02:10:38;;;;;;;;;10.75;10.25;;;;;;;;5068306;28;51362;-51
2021/08/29 02:13:05;;;;;;;;;12.50;11.00;;;;;;;;5071219;28;51039;-48
2021/08/29 02:15:33;;;;;;;;;15.00;13.50;;;;;;;;5066036;28;51015;-48
2021/08/29 02:17:59;;;;;;;;;10.50;10.00;;;;;;;;5072437;28;51258;-47
2021/08/29 02:20:25;;;;;;;;;12.50;12.50;;;;;;;;5071444;28;52234;-47
2021/08/29 02:22:53;;;;;;;;;14.25;13.75;;;;;;;;5067917;28;50929;-47
2021/08/29 02:25:19;;;;;;;;;15.25;15.25;;;;;;;;5075647;28;50944;-48
2021/08/29 02:27:44;;;;;;;;;12.00;11.67;;;;;;;;5072690;28;51233;-47
2021/08/29 02:30:10;;;;;;;;;10.75;9.75;;;;;;;;5068601;28;53086;-49
2021/08/29 02:32:39;;;;;;;;;11.75;10.75;;;;;;;;5068291;28;50900;-49
2021/08/29 02:35:06;;;;;;;;;10.00;10.00;;;;;;;;5075692;28;50973;-51
2021/08/29 02:37:31;;;;;;;;;11.50;11.00;;;;;;;;5073713;28;50975;-51
2021/08/29 02:39:57;;;;;;;;;11.75;11.50;;;;;;;;5075018;28;51886;-48
2021/08/29 02:42:23;;;;;;;;;13.50;12.25;;;;;;;;5075302;28;51054;-51
2021/08/29 02:44:49;;;;;;;;;11.75;11.00;;;;;;;;5075630;28;50998;-51
2021/08/29 02:47:14;;;;;;;;;12.00;11.00;;;;;;;;5057025;28;51197;-48
2021/08/29 02:49:39;;;;;;;;;12.00;11.33;;;;;;;;5061647;28;51019;-52
2021/08/29 02:52:05;;;;;;;;;14.25;13.75;;;;;;;;5075342;28;50948;-48
2021/08/29 02:54:32;;;;;;;;;11.00;11.00;;;;;;;;5075017;28;50939;-49
2021/08/29 02:56:58;;;;;;;;;10.25;10.00;;;;;;;;5075508;28;50908;-50
2021/08/29 02:59:23;;;;;;;;;12.75;12.00;;;;;;;;5063676;28;51931;-48
2021/08/29 03:01:49;;;;;;;;;15.50;14.00;;;;;;;;5075509;28;50921;-49
2021/08/29 03:04:14;;;;;;;;;20.00;16.75;;;;;;;;5056570;28;51149;-51
2021/08/29 03:06:39;;;;;;;;;14.00;11.50;;;;;;;;5057459;28;51050;-49
2021/08/29 03:09:05;;;;;;;;;12.75;12.75;;;;;;;;5066084;28;51398;-50
2021/08/29 03:11:30;;;;;;;;;11.00;11.00;;;;;;;;5075293;28;51011;-51
2021/08/29 03:13:56;;;;;;;;;12.25;10.50;;;;;;;;5036789;28;51129;-51
2021/08/29 03:16:22;;;;;;;;;14.25;13.75;;;;;;;;5068389;28;50981;-48
2021/08/29 03:18:48;;;;;;;;;11.00;10.50;;;;;;;;5075019;28;51719;-51
2021/08/29 03:21:13;;;;;;;;;12.25;12.00;;;;;;;;5075023;28;51053;-52
2021/08/29 03:23:38;;;;;;;;;12.67;11.67;;;;;;;;5073267;28;51029;-52
2021/08/29 03:26:04;;;;;;;;;12.75;12.75;;;;;;;;5072885;28;51336;-51
2021/08/29 03:28:29;;;;;;;;;11.33;10.67;;;;;;;;5047276;28;52032;-49
2021/08/29 03:30:54;;;;;;;;;12.50;11.00;;;;;;;;5072522;28;50942;-53
2021/08/29 03:33:21;;;;;;;;;12.75;12.00;;;;;;;;5074997;28;51071;-49
2021/08/29 03:35:47;;;;;;;;;12.00;10.00;;;;;;;;5075237;28;50830;-50
2021/08/29 03:38:14;;;;;;;;;11.00;10.00;;;;;;;;5074367;28;52528;-50
2021/08/29 03:40:39;;;;;;;;;11.33;10.33;;;;;;;;5049244;28;50919;-48
2021/08/29 03:43:05;;;;;;;;;11.67;11.00;;;;;;;;5042488;28;51010;-49
2021/08/29 03:45:31;;;;;;;;;10.50;10.50;;;;;;;;5074877;28;51120;-53
2021/08/29 03:47:56;;;;;;;;;12.00;9.25;;;;;;;;5056254;28;51342;-48
2021/08/29 03:50:22;;;;;;;;;11.00;11.00;;;;;;;;5065357;28;50916;-54
2021/08/29 03:52:48;;;;;;;;;14.75;12.00;;;;;;;;5072807;28;50859;-51
2021/08/29 03:55:14;;;;;;;;;11.00;10.25;;;;;;;;5056095;28;50957;-50
2021/08/29 03:57:39;;;;;;;;;12.75;11.50;;;;;;;;5074132;28;51896;-49
2021/08/29 04:00:05;;;;;;;;;12.50;10.75;;;;;;;;5072195;28;51152;-51
2021/08/29 04:02:30;;;;;;;;;10.75;10.50;;;;;;;;5074666;28;51007;-48
2021/08/29 04:04:56;;;;;;;;;10.50;10.00;;;;;;;;5054046;28;51259;-50
2021/08/29 04:07:21;;;;;;;;;13.00;11.00;;;;;;;;5055721;28;52714;-49
2021/08/29 04:09:47;;;;;;;;;10.75;10.25;;;;;;;;5054653;28;51075;-50
2021/08/29 04:12:14;;;;;;;;;11.00;9.75;;;;;;;;5072990;28;51192;-50
2021/08/29 04:14:40;;;;;;;;;11.00;10.67;;;;;;;;5054812;28;51446;-49
2021/08/29 04:17:07;;;;;;;;;8.75;8.00;;;;;;;;5073885;28;51757;-51
2021/08/29 04:19:34;;;;;;;;;9.00;8.00;;;;;;;;5072478;28;51025;-51
2021/08/29 04:21:59;;;;;;;;;8.33;8.33;;;;;;;;5060312;28;50990;-51
2021/08/29 04:24:25;;;;;;;;;8.75;8.75;;;;;;;;5055939;28;51050;-51
2021/08/29 04:26:50;;;;;;;;;12.00;9.33;;;;;;;;5073922;28;51256;-53
2021/08/29 04:29:15;;;;;;;;;10.50;8.50;;;;;;;;5068374;28;51008;-51
2021/08/29 04:31:44;;;;;;;;;11.50;11.50;;;;;;;;5063017;27;51944;-53
2021/08/29 04:34:09;;;;;;;;;13.50;12.00;;;;;;;;5074313;28;50937;-49
2021/08/29 04:36:37;;;;;;;;;11.00;10.50;;;;;;;;5073438;28;51856;-51
2021/08/29 04:39:05;;;;;;;;;12.75;12.50;;;;;;;;5071207;28;51057;-51
2021/08/29 04:41:30;;;;;;;;;11.25;11.25;;;;;;;;5073845;28;51069;-49
2021/08/29 04:43:55;;;;;;;;;10.00;10.00;;;;;;;;5073595;28;50894;-50
2021/08/29 04:46:21;;;;;;;;;10.67;10.67;;;;;;;;5066959;28;51044;-48
2021/08/29 04:48:46;;;;;;;;;18.00;15.00;;;;;;;;5073928;28;50941;-52
2021/08/29 04:51:11;;;;;;;;;11.33;11.33;;;;;;;;5073650;28;51236;-51
2021/08/29 04:53:36;;;;;;;;;11.75;11.50;;;;;;;;5071885;28;51235;-48
2021/08/29 04:56:01;;;;;;;;;12.00;11.00;;;;;;;;5054462;28;52467;-49
2021/08/29 04:58:26;;;;;;;;;11.67;10.33;;;;;;;;5073411;28;50978;-51
2021/08/29 05:00:52;;;;;;;;;11.00;10.00;;;;;;;;5073472;28;50917;-51
2021/08/29 05:03:17;;;;;;;;;9.67;9.00;;;;;;;;5072453;28;51117;-48
2021/08/29 05:05:42;;;;;;;;;8.00;8.00;;;;;;;;5072705;28;51816;-50
2021/08/29 05:08:08;;;;;;;;;8.00;7.67;;;;;;;;5073557;28;50973;-52
2021/08/29 05:10:33;;;;;;;;;10.67;8.33;;;;;;;;5072913;28;51267;-48
2021/08/29 05:12:58;;;;;;;;;11.00;11.00;;;;;;;;5069861;28;52603;-48
2021/08/29 05:15:23;;;;;;;;;13.00;10.25;;;;;;;;5073030;28;50875;-52
2021/08/29 05:17:48;;;;;;;;;13.00;12.33;;;;;;;;5071924;28;51203;-48
2021/08/29 05:20:14;;;;;;;;;11.67;9.67;;;;;;;;5073173;28;50881;-49
2021/08/29 05:22:39;;;;;;;;;13.33;12.33;;;;;;;;5061159;28;51042;-48
2021/08/29 05:25:04;;;;;;;;;13.00;12.00;;;;;;;;5070503;28;52434;-50
2021/08/29 05:27:29;;;;;;;;;10.67;9.67;;;;;;;;5071819;28;50977;-48
2021/08/29 05:29:55;;;;;;;;;11.00;10.67;;;;;;;;5052945;28;51204;-49
2021/08/29 05:32:20;;;;;;;;;14.33;12.67;;;;;;;;5063769;28;51199;-48
2021/08/29 05:34:45;;;;;;;;;10.00;9.33;;;;;;;;5056374;28;52085;-51
2021/08/29 05:37:10;;;;;;;;;11.00;9.67;;;;;;;;5064674;28;51099;-51
2021/08/29 05:39:35;;;;;;;;;13.67;13.00;;;;;;;;5072563;28;51000;-53
2021/08/29 05:42:01;;;;;;;;;13.67;12.33;;;;;;;;5066533;28;51207;-49
2021/08/29 05:44:26;;;;;;;;;11.00;9.67;;;;;;;;5056779;28;51269;-48
2021/08/29 05:46:51;;;;;;;;;11.33;11.00;;;;;;;;5047554;28;51059;-51
2021/08/29 05:49:16;;;;;;;;;10.00;10.00;;;;;;;;5057212;28;51045;-47
2021/08/29 05:51:41;;;;;;;;;15.67;12.00;;;;;;;;5070766;28;51143;-48
2021/08/29 05:54:07;;;;;;;;;10.33;10.00;;;;;;;;5070171;28;52736;-48
2021/08/29 05:56:32;;;;;;;;;12.67;11.67;;;;;;;;5072721;28;51141;-49
2021/08/29 05:58:57;;;;;;;;;13.00;12.00;;;;;;;;5071842;28;51337;-50
2021/08/29 06:01:22;;;;;;;;;11.67;11.33;;;;;;;;5054860;28;51078;-51
2021/08/29 06:03:48;;;;;;;;;13.33;12.33;;;;;;;;5050574;28;51734;-52
2021/08/29 06:06:13;;;;;;;;;11.25;11.00;;;;;;;;5062721;28;50986;-50
2021/08/29 06:08:38;;;;;;;;;15.33;14.67;;;;;;;;5064485;28;50992;-52
2021/08/29 06:11:05;;;;;;;;;14.00;13.67;;;;;;;;5071637;28;51326;-51
2021/08/29 06:13:30;;;;;;;;;13.00;12.33;;;;;;;;5072611;28;51918;-51
2021/08/29 06:15:55;;;;;;;;;11.33;11.33;;;;;;;;5072794;28;51155;-51
2021/08/29 06:18:20;;;;;;;;;12.00;12.00;;;;;;;;5068577;28;51271;-52
2021/08/29 06:20:46;;;;;;;;;6.00;5.00;;;;;;;;5070922;28;50970;-49
2021/08/29 06:23:11;;;;;;;;;9.33;8.00;;;;;;;;5068641;28;51887;-50
2021/08/29 06:25:36;;;;;;;;;8.67;8.00;;;;;;;;5072388;28;50869;-50
2021/08/29 06:28:02;;;;;;;;;10.67;9.00;;;;;;;;5068590;28;51812;-52
2021/08/29 06:30:27;;;;;;;;;8.00;7.00;;;;;;;;5067548;28;51094;-50
2021/08/29 06:32:52;;;;;;;;;7.67;7.67;;;;;;;;5067248;28;51795;-52
2021/08/29 06:35:18;;;;;;;;;7.67;7.67;;;;;;;;5072270;28;50978;-50
2021/08/29 06:37:43;;;;;;;;;8.00;8.00;;;;;;;;5069795;28;52919;-51
2021/08/29 06:40:08;;;;;;;;;8.67;8.33;;;;;;;;5060987;28;51099;-49
2021/08/29 06:42:34;;;;;;;;;7.67;7.00;;;;;;;;5069159;28;51137;-52
2021/08/29 06:44:59;;;;;;;;;8.67;8.00;;;;;;;;5072013;28;50981;-50
2021/08/29 06:47:24;;;;;;;;;8.00;8.00;;;;;;;;5072297;28;51140;-50
2021/08/29 06:49:49;;;;;;;;;11.00;10.33;;;;;;;;5050865;28;51435;-50
2021/08/29 06:52:14;;;;;;;;;8.67;7.00;;;;;;;;5053162;28;51723;-49
2021/08/29 06:54:40;;;;;;;;;6.00;5.33;;;;;;;;5071744;28;50843;-52
2021/08/29 06:57:05;;;;;;;;;8.00;7.00;;;;;;;;5070878;28;51341;-51
2021/08/29 06:59:30;;;;;;;;;9.00;8.00;;;;;;;;5051404;28;51081;-50
2021/08/29 07:01:55;;;;;;;;;8.00;8.00;;;;;;;;5066353;28;51117;-49
2021/08/29 07:04:20;;;;;;;;;7.00;6.00;;;;;;;;5065312;28;51232;-49
2021/08/29 07:06:46;;;;;;;;;7.00;6.67;;;;;;;;5073902;27;51175;-51
2021/08/29 07:09:11;;;;;;;;;9.00;9.00;;;;;;;;5073794;28;51065;-52
2021/08/29 07:11:36;;;;;;;;;7.00;6.00;;;;;;;;5072662;28;52375;-49
2021/08/29 07:14:01;;;;;;;;;7.33;7.00;;;;;;;;5070271;28;51265;-49
2021/08/29 07:16:26;;;;;;;;;8.00;8.00;;;;;;;;5073397;28;51159;-51
2021/08/29 07:18:52;;;;;;;;;7.00;6.00;;;;;;;;5075100;28;51175;-50
2021/08/29 07:21:17;;;;;;;;;8.00;8.00;;;;;;;;5056570;28;54135;-52
2021/08/29 07:23:42;;;;;;;;;7.00;7.00;;;;;;;;5059464;28;51218;-48
2021/08/29 07:26:13;;;;;;;;;8.00;7.00;;;;;;;;5066170;28;51154;-52
2021/08/29 07:28:38;;;;;;;;;6.33;6.33;;;;;;;;5043079;28;51319;-50
2021/08/29 07:31:03;;;;;;;;;6.67;6.00;;;;;;;;5074414;28;51071;-49
2021/08/29 07:33:28;;;;;;;;;7.33;6.00;;;;;;;;5074795;28;50970;-48
2021/08/29 07:35:54;;;;;;;;;5.00;5.00;;;;;;;;5073308;28;51320;-50
2021/08/29 07:38:19;;;;;;;;;8.00;7.00;;;;;;;;5051031;28;51523;-51
2021/08/29 07:40:44;;;;;;;;;8.67;7.33;;;;;;;;5054445;28;51135;-51
2021/08/29 07:43:09;;;;;;;;;7.33;7.00;;;;;;;;5073983;28;50787;-51
2021/08/29 07:45:35;;;;;;;;;6.00;5.33;;;;;;;;5072952;28;50957;-49
2021/08/29 07:48:00;;;;;;;;;7.33;7.33;;;;;;;;5056237;28;51327;-51
2021/08/29 07:50:25;;;;;;;;;8.33;7.33;;;;;;;;5074418;28;52059;-51
2021/08/29 07:52:51;;;;;;;;;6.67;6.67;;;;;;;;5068260;28;51059;-51
2021/08/29 07:55:16;;;;;;;;;9.00;9.00;;;;;;;;5050812;28;51010;-52
2021/08/29 07:57:41;;;;;;;;;7.67;6.67;;;;;;;;5068704;28;51077;-52
2021/08/29 08:00:07;;;;;;;;;5.33;5.00;;;;;;;;5071981;28;51766;-52
2021/08/29 08:02:32;;;;;;;;;6.00;5.67;;;;;;;;5074314;28;50949;-50
2021/08/29 08:04:58;;;;;;;;;6.33;6.00;;;;;;;;5061644;28;51131;-51
2021/08/29 08:07:23;;;;;;;;;8.00;8.00;;;;;;;;5055879;28;51268;-49
2021/08/29 08:09:48;;;;;;;;;9.00;8.33;;;;;;;;5073520;28;51605;-51
2021/08/29 08:12:14;;;;;;;;;7.50;7.50;;;;;;;;5068175;28;51083;-50
2021/08/29 08:14:39;;;;;;;;;7.00;7.00;;;;;;;;5072744;28;51102;-50
2021/08/29 08:17:04;;;;;;;;;8.33;8.00;;;;;;;;5067227;28;51207;-50
2021/08/29 08:19:30;;;;;;;;;6.00;6.00;;;;;;;;5055755;28;50948;-49
2021/08/29 08:21:55;;;;;;;;;10.00;8.33;;;;;;;;5071141;28;51124;-51
2021/08/29 08:24:20;;;;;;;;;8.00;7.00;;;;;;;;5073263;28;51156;-51
2021/08/29 08:26:45;;;;;;;;;7.33;7.00;;;;;;;;5080251;27;51053;-50
2021/08/29 08:29:10;;;;;;;;;7.67;6.67;;;;;;;;5071510;28;51789;-47
2021/08/29 08:31:36;;;;;;;;;7.33;7.00;;;;;;;;5073463;28;50951;-48
2021/08/29 08:34:02;;;;;;;;;7.00;7.00;;;;;;;;5073413;28;51219;-50
2021/08/29 08:36:27;;;;;;;;;7.00;6.00;;;;;;;;5067842;28;51205;-47
2021/08/29 08:38:52;;;;;;;;;6.67;6.67;;;;;;;;5065208;28;51719;-50
2021/08/29 08:41:18;;;;;;;;;6.67;6.33;;;;;;;;5062504;28;50907;-50
2021/08/29 08:43:44;;;;;;;;;6.33;5.67;;;;;;;;5070844;28;50884;-49
2021/08/29 08:46:11;;;;;;;;;6.00;6.00;;;;;;;;5070565;28;50982;-48
2021/08/29 08:48:37;;;;;;;;;5.33;5.33;;;;;;;;5063501;27;52314;-51
2021/08/29 08:51:04;;;;;;;;;4.67;4.67;;;;;;;;5064344;27;51117;-50
2021/08/29 08:53:30;;;;;;;;;6.33;5.67;;;;;;;;5064034;28;51132;-50
2021/08/29 08:55:57;;;;;;;;;4.00;4.00;;;;;;;;5071802;28;51252;-51
2021/08/29 08:58:22;;;;;;;;;7.00;7.00;;;;;;;;5068541;28;52015;-51
2021/08/29 09:00:48;;;;;;;;;3.00;3.00;;;;;;;;5069379;27;51012;-51
2021/08/29 09:03:14;;;;;;;;;7.00;6.00;;;;;;;;5049444;28;51711;-51
2021/08/29 09:05:40;;;;;;;;;5.33;5.33;;;;;;;;5057924;28;51396;-49
2021/08/29 09:08:05;;;;;;;;;6.00;6.00;;;;;;;;5070428;28;52199;-52
2021/08/29 09:10:31;;;;;;;;;7.00;6.67;;;;;;;;5070274;28;51062;-52
2021/08/29 09:12:57;;;;;;;;;7.00;7.00;;;;;;;;5064302;28;51582;-52
2021/08/29 09:15:23;;;;;;;;;7.00;6.33;;;;;;;;5072845;28;51138;-50
2021/08/29 09:17:48;;;;;;;;;8.00;6.00;;;;;;;;5067913;28;52013;-51
2021/08/29 09:20:15;;;;;;;;;7.67;7.00;;;;;;;;5064807;28;51319;-49
2021/08/29 09:22:41;;;;;;;;;6.00;6.00;;;;;;;;5060620;27;51067;-48
2021/08/29 09:25:16;;;;;;;;;7.33;6.67;;;;;;;;5069787;28;50909;-51
2021/08/29 09:27:43;;;;;;;;;7.67;7.00;;;;;;;;5068740;28;51412;-52
2021/08/29 09:30:09;;;;;;;;;7.67;7.33;;;;;;;;5066234;28;51130;-48
2021/08/29 09:32:34;;;;;;;;;5.00;5.00;;;;;;;;5048817;28;51342;-53
2021/08/29 09:34:59;;;;;;;;;6.00;5.33;;;;;;;;5068821;28;51083;-49
2021/08/29 09:37:24;;;;;;;;;8.00;6.67;;;;;;;;5070070;28;52042;-49
2021/08/29 09:39:50;;;;;;;;;6.33;6.00;;;;;;;;5057818;28;51238;-47
2021/08/29 09:42:15;;;;;;;;;8.33;8.33;;;;;;;;5060939;28;50936;-49
2021/08/29 09:44:40;;;;;;;;;6.67;6.00;;;;;;;;5063601;28;51415;-49
2021/08/29 09:47:06;;;;;;;;;7.00;6.00;;;;;;;;5068278;28;51034;-50
2021/08/29 09:49:34;;;;;;;;;5.67;5.67;;;;;;;;5071356;28;51163;-50
2021/08/29 09:52:00;;;;;;;;;6.00;5.33;;;;;;;;5071247;28;51197;-51
2021/08/29 09:54:30;;;;;;;;;6.67;6.00;;;;;;;;5071261;28;51308;-50
2021/08/29 09:56:55;;;;;;;;;8.00;7.00;;;;;;;;5070770;27;52034;-51
2021/08/29 09:59:39;;;;;;;;;6.00;6.00;;;;;;;;5070781;28;50980;-50
2021/08/29 10:02:04;;;;;;;;;5.33;5.33;;;;;;;;5068164;28;50970;-50
2021/08/29 10:04:29;;;;;;;;;6.33;6.00;;;;;;;;5060212;28;50870;-51
2021/08/29 10:06:55;;;;;;;;;7.33;7.33;;;;;;;;5070567;28;51023;-51
2021/08/29 10:09:26;;;;;;;;;8.00;7.00;;;;;;;;5070629;28;50929;-48
2021/08/29 10:11:52;;;;;;;;;5.33;5.00;;;;;;;;5065705;28;51066;-48
2021/08/29 10:14:17;;;;;;;;;7.00;6.33;;;;;;;;5065380;28;51457;-50
2021/08/29 10:16:43;;;;;;;;;5.67;5.67;;;;;;;;5071178;28;50884;-52
2021/08/29 10:19:09;;;;;;;;;9.00;9.00;;;;;;;;5070624;28;50844;-49
2021/08/29 10:21:35;;;;;;;;;7.67;7.67;;;;;;;;5069219;28;51184;-51
2021/08/29 10:24:01;;;;;;;;;9.33;8.00;;;;;;;;5071676;27;51551;-51
2021/08/29 10:26:28;;;;;;;;;9.00;9.00;;;;;;;;5065230;28;52215;-50
2021/08/29 10:29:04;;;;;;;;;8.00;8.00;;;;;;;;5065764;28;51204;-51
2021/08/29 10:31:34;;;;;;;;;9.67;9.00;;;;;;;;5061804;28;51318;-48
2021/08/29 10:34:00;;;;;;;;;13.00;10.67;;;;;;;;5064545;28;51280;-52
2021/08/29 10:36:26;;;;;;;;;9.00;9.00;;;;;;;;5060049;28;51887;-54
2021/08/29 10:38:51;;;;;;;;;9.33;8.33;;;;;;;;5070955;28;51078;-49
2021/08/29 10:41:20;;;;;;;;;9.33;9.33;;;;;;;;5072279;28;51036;-50
2021/08/29 10:43:45;;;;;;;;;9.33;7.00;;;;;;;;5060740;28;51262;-52
2021/08/29 10:46:11;;;;;;;;;8.67;8.33;;;;;;;;5072135;28;51591;-56
2021/08/29 10:48:39;;;;;;;;;8.33;8.00;;;;;;;;5073586;28;51055;-57
2021/08/29 10:51:05;;;;;;;;;7.67;7.67;;;;;;;;5050264;28;51051;-56
2021/08/29 10:53:35;;;;;;;;;9.33;8.67;;;;;;;;5057716;28;50999;-56
2021/08/29 10:56:16;;;;;;;;;9.67;9.67;;;;;;;;5071413;28;51651;-58
2021/08/29 10:58:42;;;;;;;;;7.00;7.00;;;;;;;;5056253;28;51056;-56
2021/08/29 11:01:25;;;;;;;;;8.00;8.00;;;;;;;;5068866;28;51267;-59
2021/08/29 11:03:51;;;;;;;;;8.00;7.67;;;;;;;;5070697;28;51223;-58
2021/08/29 11:06:39;;;;;;;;;10.00;8.33;;;;;;;;5054256;28;51144;-58
2021/08/29 11:09:23;;;;;;;;;9.00;7.67;;;;;;;;5046782;28;51248;-58
2021/08/29 11:11:49;;;;;;;;;7.33;7.00;;;;;;;;5072182;28;51011;-57
2021/08/29 11:14:33;;;;;;;;;8.33;7.00;;;;;;;;5069947;28;51089;-59
2021/08/29 11:17:08;;;;;;;;;7.33;7.00;;;;;;;;5049075;28;52030;-58
2021/08/29 11:19:40;;;;;;;;;9.00;8.00;;;;;;;;5039981;28;51063;-57
2021/08/29 11:22:08;;;;;;;;;8.00;8.00;;;;;;;;5053301;28;51047;-56
2021/08/29 11:24:48;;;;;;;;;9.00;8.33;;;;;;;;5070191;28;50969;-57
2021/08/29 11:27:32;;;;;;;;;8.33;7.33;;;;;;;;5073460;28;52159;-58
2021/08/29 11:29:57;;;;;;;;;6.00;6.00;;;;;;;;5073730;28;50999;-56
2021/08/29 11:32:32;;;;;;;;;8.33;8.33;;;;;;;;5072122;28;51086;-53
2021/08/29 11:35:05;;;;;;;;;6.67;6.67;;;;;;;;5073951;28;51335;-51
2021/08/29 11:37:30;;;;;;;;;10.00;8.33;;;;;;;;5073273;28;51225;-51
2021/08/29 11:40:03;;;;;;;;;8.67;8.67;;;;;;;;5073635;28;50966;-53
2021/08/29 11:42:29;;;;;;;;;7.67;6.67;;;;;;;;5073870;28;51100;-55
2021/08/29 11:44:58;;;;;;;;;6.33;6.00;;;;;;;;5073292;28;51040;-54
2021/08/29 11:47:24;;;;;;;;;9.33;8.67;;;;;;;;5068824;28;51124;-56
2021/08/29 11:49:53;;;;;;;;;7.67;7.00;;;;;;;;5055272;28;50866;-58
2021/08/29 11:52:26;;;;;;;;;5.67;5.33;;;;;;;;5072578;28;51118;-56
2021/08/29 11:55:11;;;;;;;;;8.00;7.00;;;;;;;;5073383;28;50960;-57
2021/08/29 11:57:50;;;;;;;;;7.67;7.33;;;;;;;;5070814;28;52172;-56
2021/08/29 12:00:16;;;;;;;;;6.33;6.00;;;;;;;;5052110;28;50955;-54
2021/08/29 12:02:43;;;;;;;;;6.67;6.67;;;;;;;;5071967;28;50868;-57
2021/08/29 12:05:09;;;;;;;;;5.33;5.33;;;;;;;;5073261;28;50842;-57
2021/08/29 12:07:38;;;;;;;;;6.00;6.00;;;;;;;;5073129;28;50928;-57
2021/08/29 12:10:06;;;;;;;;;5.67;5.67;;;;;;;;5072953;28;51038;-55
2021/08/29 12:12:32;;;;;;;;;7.00;7.00;;;;;;;;5054667;28;51219;-57
2021/08/29 12:14:57;;;;;;;;;7.00;6.00;;;;;;;;5065069;28;51128;-56
2021/08/29 12:17:24;;;;;;;;;6.67;6.00;;;;;;;;5048882;28;51808;-55
2021/08/29 12:19:51;;;;;;;;;8.00;8.00;;;;;;;;5073304;28;50946;-54
2021/08/29 12:22:16;;;;;;;;;8.33;8.00;;;;;;;;5073182;28;51129;-56
2021/08/29 12:24:42;;;;;;;;;7.67;7.00;;;;;;;;5073353;27;50915;-55
2021/08/29 12:27:09;;;;;;;;;8.33;7.67;;;;;;;;5065771;27;52166;-57
2021/08/29 12:29:51;;;;;;;;;7.00;7.00;;;;;;;;5070797;28;51040;-55
2021/08/29 12:32:26;;;;;;;;;5.00;5.00;;;;;;;;5058688;28;51099;-57
2021/08/29 12:34:51;;;;;;;;;7.00;7.00;;;;;;;;5038214;28;51221;-57
2021/08/29 12:37:17;;;;;;;;;7.67;7.67;;;;;;;;5060236;28;52285;-57
2021/08/29 12:39:54;;;;;;;;;7.00;6.33;;;;;;;;5071020;28;50964;-56
2021/08/29 12:42:20;;;;;;;;;4.67;4.67;;;;;;;;5072017;28;51070;-58
2021/08/29 12:44:46;;;;;;;;;10.33;10.33;;;;;;;;5072942;28;51049;-57
2021/08/29 12:47:11;;;;;;;;;9.00;9.00;;;;;;;;5063818;28;51910;-57
2021/08/29 12:49:37;;;;;;;;;7.00;7.00;;;;;;;;5070701;27;51055;-57
2021/08/29 12:52:04;;;;;;;;;8.33;8.33;;;;;;;;5068397;28;51124;-56
2021/08/29 12:54:31;;;;;;;;;10.00;9.00;;;;;;;;5070471;28;51147;-57
2021/08/29 12:56:56;;;;;;;;;8.33;8.33;;;;;;;;5072349;28;52327;-55
2021/08/29 12:59:25;;;;;;;;;8.00;8.00;;;;;;;;5072066;28;51091;-55
2021/08/29 13:01:54;;;;;;;;;7.00;7.00;;;;;;;;5072086;28;51100;-56
2021/08/29 13:04:26;;;;;;;;;7.33;7.00;;;;;;;;5072271;28;50879;-53
2021/08/29 13:07:01;;;;;;;;;7.00;7.00;;;;;;;;5072052;28;52010;-56
2021/08/29 13:09:26;;;;;;;;;7.33;7.00;;;;;;;;5071923;28;50862;-55
2021/08/29 13:11:53;;;;;;;;;6.00;5.00;;;;;;;;5072565;28;50851;-55
2021/08/29 13:14:28;;;;;;;;;9.67;8.67;;;;;;;;5054248;28;51047;-56
2021/08/29 13:16:54;;;;;;;;;7.33;7.33;;;;;;;;5053605;28;52717;-56
2021/08/29 13:19:23;;;;;;;;;7.00;7.00;;;;;;;;5072370;28;50873;-56
2021/08/29 13:21:55;;;;;;;;;9.00;8.00;;;;;;;;5053832;28;50897;-56
2021/08/29 13:24:24;;;;;;;;;10.33;9.33;;;;;;;;5071611;28;50945;-56
2021/08/29 13:26:50;;;;;;;;;9.67;9.00;;;;;;;;5071661;28;51137;-56
2021/08/29 13:29:15;;;;;;;;;6.33;6.33;;;;;;;;5072052;28;51056;-56
2021/08/29 13:31:40;;;;;;;;;10.50;10.00;;;;;;;;5071978;28;50944;-54
2021/08/29 13:34:06;;;;;;;;;9.33;8.33;;;;;;;;5071743;28;50938;-56
2021/08/29 13:36:32;;;;;;;;;8.00;8.00;;;;;;;;5071519;28;51036;-56
2021/08/29 13:38:58;;;;;;;;;8.00;8.00;;;;;;;;5071465;28;50954;-56
2021/08/29 13:41:24;;;;;;;;;9.00;9.00;;;;;;;;5071715;28;50918;-57
2021/08/29 13:43:54;;;;;;;;;8.00;7.33;;;;;;;;5072277;28;50904;-56
2021/08/29 13:46:19;;;;;;;;;7.00;7.00;;;;;;;;5071330;28;51873;-54
2021/08/29 13:48:44;;;;;;;;;10.33;10.00;;;;;;;;5071431;28;50970;-56
2021/08/29 13:51:11;;;;;;;;;8.00;7.00;;;;;;;;5070970;28;51082;-57
2021/08/29 13:53:37;;;;;;;;;9.00;8.00;;;;;;;;5071510;28;51143;-56
2021/08/29 13:56:03;;;;;;;;;8.33;8.00;;;;;;;;5071173;28;51447;-55
2021/08/29 13:58:29;;;;;;;;;9.00;8.67;;;;;;;;5035809;28;51077;-58
2021/08/29 14:00:56;;;;;;;;;10.33;10.00;;;;;;;;5071319;28;51311;-56
2021/08/29 14:03:21;;;;;;;;;7.00;7.00;;;;;;;;5067532;28;51037;-57
2021/08/29 14:05:47;;;;;;;;;8.00;7.00;;;;;;;;5070434;28;51046;-57
2021/08/29 14:08:12;;;;;;;;;7.00;7.00;;;;;;;;5070677;28;51058;-55
2021/08/29 14:10:37;;;;;;;;;9.67;9.00;;;;;;;;5070874;28;51010;-56
2021/08/29 14:13:03;;;;;;;;;13.33;12.33;;;;;;;;5070939;28;51229;-57
2021/08/29 14:15:28;;;;;;;;;9.00;9.00;;;;;;;;5073072;28;53325;-55
2021/08/29 14:17:54;;;;;;;;;11.00;9.67;;;;;;;;5078209;28;51225;-58
2021/08/29 14:20:20;;;;;;;;;8.67;7.33;;;;;;;;5077731;28;50947;-55
2021/08/29 14:22:46;;;;;;;;;8.00;8.00;;;;;;;;5077969;28;50932;-56
2021/08/29 14:25:14;;;;;;;;;10.67;10.00;;;;;;;;5076993;28;51914;-57
2021/08/29 14:27:41;;;;;;;;;12.67;10.67;;;;;;;;5077222;28;50814;-56
2021/08/29 14:30:06;;;;;;;;;7.67;7.33;;;;;;;;5077220;28;50995;-55